Arlington, New Jersey
Current Conditions -  °F | °C
As of 8:51 PM on Saturday 25 Oct 2014 (Local Time) from KEWR Reporting Station
Broken Clouds Broken Clouds  
Wind Chill: 63°   Ceiling: 25000
Heat Index: 63°   Visibility: 10mi
Dew Point: 44°   Wind: 9mph
Humidity: 50%   Direction: 200°SSW
Pressure: 29.62"   Gusts: 17mph
Location:  40.7563°N, 74.1217°W
Report Text: KEWR 260051Z 20008G15KT 10SM SCT070 BKN250 17/07 A2962 RMK AO2 SLP031 T01720067
Loading
Personal Weather Stations






























Interactive Weather Map
Tropical Storm Tracking
New forecast layout! Learn more

10-Day Weather Forecast

Advertisements
Track Severe Weather on mobile